sensor_id;sensor_type;location;lat;lon;timestamp;pressure;altitude;pressure_sealevel;temperature;humidity
36254;BME280;22291;52.250;21.228;2023-01-09T00:00:39;99480.19;;;2.71;98.73
36254;BME280;22291;52.250;21.228;2023-01-09T00:03:07;99469.23;;;2.70;98.79
36254;BME280;22291;52.250;21.228;2023-01-09T00:05:34;99465.22;;;2.70;98.87
36254;BME280;22291;52.250;21.228;2023-01-09T00:08:00;99455.33;;;2.70;98.85
36254;BME280;22291;52.250;21.228;2023-01-09T00:10:26;99457.21;;;2.70;99.00
36254;BME280;22291;52.250;21.228;2023-01-09T00:12:53;99455.33;;;2.70;98.95
36254;BME280;22291;52.250;21.228;2023-01-09T00:15:19;99439.58;;;2.71;99.05
36254;BME280;22291;52.250;21.228;2023-01-09T00:17:45;99430.50;;;2.70;98.95
36254;BME280;22291;52.250;21.228;2023-01-09T00:20:13;99427.56;;;2.71;98.96
36254;BME280;22291;52.250;21.228;2023-01-09T00:22:39;99430.47;;;2.72;99.17
36254;BME280;22291;52.250;21.228;2023-01-09T00:25:07;99429.14;;;2.72;99.09
36254;BME280;22291;52.250;21.228;2023-01-09T00:27:35;99420.61;;;2.73;99.03
36254;BME280;22291;52.250;21.228;2023-01-09T00:30:02;99424.86;;;2.74;99.06
36254;BME280;22291;52.250;21.228;2023-01-09T00:32:31;99421.40;;;2.73;99.05
36254;BME280;22291;52.250;21.228;2023-01-09T00:34:57;99415.27;;;2.73;99.05
36254;BME280;22291;52.250;21.228;2023-01-09T00:37:24;99415.52;;;2.74;99.11
36254;BME280;22291;52.250;21.228;2023-01-09T00:39:51;99428.08;;;2.73;99.20
36254;BME280;22291;52.250;21.228;2023-01-09T00:42:20;99434.20;;;2.74;99.23
36254;BME280;22291;52.250;21.228;2023-01-09T00:44:51;99443.83;;;2.75;99.19
36254;BME280;22291;52.250;21.228;2023-01-09T00:47:31;99434.75;;;2.73;99.28
36254;BME280;22291;52.250;21.228;2023-01-09T00:50:00;99427.53;;;2.74;99.23
36254;BME280;22291;52.250;21.228;2023-01-09T00:52:30;99430.75;;;2.73;99.30
36254;BME280;22291;52.250;21.228;2023-01-09T00:54:59;99431.53;;;2.74;99.11
36254;BME280;22291;52.250;21.228;2023-01-09T00:57:26;99421.13;;;2.75;99.17
36254;BME280;22291;52.250;21.228;2023-01-09T00:59:53;99422.19;;;2.76;99.22
36254;BME280;22291;52.250;21.228;2023-01-09T01:02:19;99427.80;;;2.75;99.18
36254;BME280;22291;52.250;21.228;2023-01-09T01:04:46;99439.55;;;2.76;99.28
36254;BME280;22291;52.250;21.228;2023-01-09T01:07:23;99419.52;;;2.74;99.14
36254;BME280;22291;52.250;21.228;2023-01-09T01:10:17;99405.89;;;2.75;99.16
36254;BME280;22291;52.250;21.228;2023-01-09T01:12:36;99402.70;;;2.76;99.15
36254;BME280;22291;52.250;21.228;2023-01-09T01:15:05;99401.09;;;2.75;99.16
36254;BME280;22291;52.250;21.228;2023-01-09T01:17:34;99406.98;;;2.74;99.19
36254;BME280;22291;52.250;21.228;2023-01-09T01:20:04;99412.84;;;2.74;99.04
36254;BME280;22291;52.250;21.228;2023-01-09T01:22:32;99405.64;;;2.74;99.13
36254;BME280;22291;52.250;21.228;2023-01-09T01:24:59;99399.77;;;2.72;99.12
36254;BME280;22291;52.250;21.228;2023-01-09T01:27:27;99394.42;;;2.75;99.16
36254;BME280;22291;52.250;21.228;2023-01-09T01:29:55;99386.67;;;2.76;99.25
36254;BME280;22291;52.250;21.228;2023-01-09T01:32:22;99375.99;;;2.76;99.13
36254;BME280;22291;52.250;21.228;2023-01-09T01:34:49;99374.11;;;2.76;99.21
36254;BME280;22291;52.250;21.228;2023-01-09T01:37:16;99369.83;;;2.75;99.15
36254;BME280;22291;52.250;21.228;2023-01-09T01:39:43;99371.72;;;2.75;99.16
36254;BME280;22291;52.250;21.228;2023-01-09T01:42:11;99376.78;;;2.76;99.16
36254;BME280;22291;52.250;21.228;2023-01-09T01:47:48;99368.73;;;2.79;99.18
36254;BME280;22291;52.250;21.228;2023-01-09T01:50:34;99364.21;;;2.79;99.13
36254;BME280;22291;52.250;21.228;2023-01-09T02:01:43;99363.67;;;2.77;99.07
36254;BME280;22291;52.250;21.228;2023-01-09T02:04:11;99362.88;;;2.77;99.12
36254;BME280;22291;52.250;21.228;2023-01-09T02:06:39;99361.27;;;2.78;99.16
36254;BME280;22291;52.250;21.228;2023-01-09T02:09:07;99366.06;;;2.79;99.14
36254;BME280;22291;52.250;21.228;2023-01-09T02:11:34;99366.06;;;2.79;99.14
36254;BME280;22291;52.250;21.228;2023-01-09T02:14:01;99362.88;;;2.79;99.28
36254;BME280;22291;52.250;21.228;2023-01-09T02:20:07;99367.63;;;2.83;99.23
36254;BME280;22291;52.250;21.228;2023-01-09T02:31:47;99370.84;;;2.85;99.41
36254;BME280;22291;52.250;21.228;2023-01-09T02:34:43;99366.30;;;2.85;99.43
36254;BME280;22291;52.250;21.228;2023-01-09T02:37:50;99363.89;;;2.86;99.40
36254;BME280;22291;52.250;21.228;2023-01-09T02:41:06;99354.78;;;2.87;99.46
36254;BME280;22291;52.250;21.228;2023-01-09T02:42:56;99355.88;;;2.84;99.39
36254;BME280;22291;52.250;21.228;2023-01-09T02:45:24;99359.30;;;2.89;99.33
36254;BME280;22291;52.250;21.228;2023-01-09T02:47:50;99356.11;;;2.90;99.22
36254;BME280;22291;52.250;21.228;2023-01-09T02:50:26;99358.23;;;2.90;99.13
36254;BME280;22291;52.250;21.228;2023-01-09T02:53:26;99358.23;;;2.90;99.06
36254;BME280;22291;52.250;21.228;2023-01-09T03:05:06;99362.84;;;2.85;98.56
36254;BME280;22291;52.250;21.228;2023-01-09T03:08:06;99362.56;;;2.84;98.63
36254;BME280;22291;52.250;21.228;2023-01-09T03:13:28;99347.36;;;2.82;98.76
36254;BME280;22291;52.250;21.228;2023-01-09T03:15:59;99344.41;;;2.83;98.83
36254;BME280;22291;52.250;21.228;2023-01-09T03:18:29;99338.02;;;2.82;98.71
36254;BME280;22291;52.250;21.228;2023-01-09T03:20:57;99340.14;;;2.82;98.70
36254;BME280;22291;52.250;21.228;2023-01-09T03:23:23;99334.01;;;2.82;98.71
36254;BME280;22291;52.250;21.228;2023-01-09T03:25:50;99324.11;;;2.82;98.78
36254;BME280;22291;52.250;21.228;2023-01-09T03:28:25;99329.45;;;2.82;98.72
36254;BME280;22291;52.250;21.228;2023-01-09T03:30:53;99325.72;;;2.83;98.76
36254;BME280;22291;52.250;21.228;2023-01-09T03:33:20;99324.10;;;2.85;98.71
36254;BME280;22291;52.250;21.228;2023-01-09T03:35:47;99321.44;;;2.85;98.72
36254;BME280;22291;52.250;21.228;2023-01-09T03:38:13;99315.81;;;2.86;98.75
36254;BME280;22291;52.250;21.228;2023-01-09T03:40:40;99309.13;;;2.86;98.72
36254;BME280;22291;52.250;21.228;2023-01-09T03:43:08;99307.53;;;2.85;98.63
36254;BME280;22291;52.250;21.228;2023-01-09T03:45:35;99309.13;;;2.86;98.62
36254;BME280;22291;52.250;21.228;2023-01-09T03:48:02;99306.16;;;2.88;98.65
36254;BME280;22291;52.250;21.228;2023-01-09T03:50:30;99295.23;;;2.87;98.70
36254;BME280;22291;52.250;21.228;2023-01-09T03:52:56;99295.47;;;2.88;98.65
36254;BME280;22291;52.250;21.228;2023-01-09T03:55:22;99294.14;;;2.88;98.69
36254;BME280;22291;52.250;21.228;2023-01-09T03:57:48;99288.78;;;2.90;98.71
36254;BME280;22291;52.250;21.228;2023-01-09T04:00:16;99281.56;;;2.91;98.67
36254;BME280;22291;52.250;21.228;2023-01-09T04:02:44;99266.87;;;2.91;98.60
36254;BME280;22291;52.250;21.228;2023-01-09T04:05:11;99263.95;;;2.90;98.54
36254;BME280;22291;52.250;21.228;2023-01-09T04:07:38;99263.69;;;2.89;98.56
36254;BME280;22291;52.250;21.228;2023-01-09T04:10:06;99261.80;;;2.89;98.57
36254;BME280;22291;52.250;21.228;2023-01-09T04:12:33;99255.67;;;2.89;98.62
36254;BME280;22291;52.250;21.228;2023-01-09T04:14:59;99261.80;;;2.89;98.64
36254;BME280;22291;52.250;21.228;2023-01-09T04:17:25;99265.58;;;2.88;98.61
36254;BME280;22291;52.250;21.228;2023-01-09T04:19:51;99265.06;;;2.86;98.59
36254;BME280;22291;52.250;21.228;2023-01-09T04:22:17;99269.86;;;2.87;98.69
36254;BME280;22291;52.250;21.228;2023-01-09T04:24:44;99263.18;;;2.87;98.71
36254;BME280;22291;52.250;21.228;2023-01-09T04:27:10;99273.87;;;2.87;98.74
36254;BME280;22291;52.250;21.228;2023-01-09T04:29:37;99274.66;;;2.87;98.78
36254;BME280;22291;52.250;21.228;2023-01-09T04:32:04;99278.66;;;2.87;98.83
36254;BME280;22291;52.250;21.228;2023-01-09T04:34:30;99279.17;;;2.89;98.92
36254;BME280;22291;52.250;21.228;2023-01-09T04:36:58;99275.70;;;2.89;98.92
36254;BME280;22291;52.250;21.228;2023-01-09T04:39:24;99272.76;;;2.90;98.94
36254;BME280;22291;52.250;21.228;2023-01-09T04:41:50;99263.41;;;2.90;98.99
36254;BME280;22291;52.250;21.228;2023-01-09T04:44:20;99270.63;;;2.90;99.05
36254;BME280;22291;52.250;21.228;2023-01-09T04:46:50;99262.34;;;2.91;99.13
36254;BME280;22291;52.250;21.228;2023-01-09T04:49:16;99262.58;;;2.92;99.28
36254;BME280;22291;52.250;21.228;2023-01-09T04:51:43;99260.45;;;2.92;99.38
36254;BME280;22291;52.250;21.228;2023-01-09T04:54:10;99251.89;;;2.92;99.38
36254;BME280;22291;52.250;21.228;2023-01-09T04:56:37;99264.97;;;2.94;99.46
36254;BME280;22291;52.250;21.228;2023-01-09T04:59:05;99254.55;;;2.95;99.55
36254;BME280;22291;52.250;21.228;2023-01-09T05:01:33;99253.72;;;2.97;99.64
36254;BME280;22291;52.250;21.228;2023-01-09T05:04:00;99248.65;;;2.98;99.71
36254;BME280;22291;52.250;21.228;2023-01-09T05:06:27;99247.27;;;3.01;99.86
36254;BME280;22291;52.250;21.228;2023-01-09T05:08:53;99239.80;;;3.00;99.83
36254;BME280;22291;52.250;21.228;2023-01-09T05:11:22;99237.91;;;3.03;99.84
36254;BME280;22291;52.250;21.228;2023-01-09T05:13:50;99233.59;;;3.05;99.91
36254;BME280;22291;52.250;21.228;2023-01-09T05:16:19;99234.64;;;3.06;99.88
36254;BME280;22291;52.250;21.228;2023-01-09T05:18:46;99223.72;;;3.05;99.94
36254;BME280;22291;52.250;21.228;2023-01-09T05:21:13;99225.05;;;3.05;100.00
36254;BME280;22291;52.250;21.228;2023-01-09T05:23:39;99221.05;;;3.05;100.00
36254;BME280;22291;52.250;21.228;2023-01-09T05:26:06;99219.95;;;3.06;100.00
36254;BME280;22291;52.250;21.228;2023-01-09T05:28:32;99223.67;;;3.08;100.00
36254;BME280;22291;52.250;21.228;2023-01-09T05:30:59;99221.83;;;3.06;100.00
36254;BME280;22291;52.250;21.228;2023-01-09T05:33:25;99219.66;;;3.08;100.00
36254;BME280;22291;52.250;21.228;2023-01-09T05:35:51;99222.89;;;3.07;100.00
36254;BME280;22291;52.250;21.228;2023-01-09T05:38:18;99214.32;;;3.08;100.00
36254;BME280;22291;52.250;21.228;2023-01-09T05:40:44;99214.32;;;3.08;100.00
36254;BME280;22291;52.250;21.228;2023-01-09T05:43:10;99208.15;;;3.10;100.00
36254;BME280;22291;52.250;21.228;2023-01-09T05:45:37;99202.02;;;3.09;100.00
36254;BME280;22291;52.250;21.228;2023-01-09T05:48:04;99203.63;;;3.10;100.00
36254;BME280;22291;52.250;21.228;2023-01-09T05:50:31;99195.60;;;3.10;100.00
36254;BME280;22291;52.250;21.228;2023-01-09T05:52:58;99191.05;;;3.11;100.00
36254;BME280;22291;52.250;21.228;2023-01-09T05:55:24;99191.55;;;3.13;100.00
36254;BME280;22291;52.250;21.228;2023-01-09T05:57:50;99189.93;;;3.14;100.00
36254;BME280;22291;52.250;21.228;2023-01-09T06:00:18;99190.72;;;3.15;100.00
36254;BME280;22291;52.250;21.228;2023-01-09T06:02:45;99187.76;;;3.16;100.00
36254;BME280;22291;52.250;21.228;2023-01-09T06:05:11;99188.30;;;3.18;100.00
36254;BME280;22291;52.250;21.228;2023-01-09T06:07:38;99188.30;;;3.18;100.00
36254;BME280;22291;52.250;21.228;2023-01-09T06:10:10;99191.20;;;3.20;100.00
36254;BME280;22291;52.250;21.228;2023-01-09T06:12:38;99193.59;;;3.21;100.00
36254;BME280;22291;52.250;21.228;2023-01-09T06:15:07;99190.12;;;3.21;100.00
36254;BME280;22291;52.250;21.228;2023-01-09T06:17:34;99199.98;;;3.23;100.00
36254;BME280;22291;52.250;21.228;2023-01-09T06:20:00;99185.29;;;3.23;100.00
36254;BME280;22291;52.250;21.228;2023-01-09T06:22:26;99186.63;;;3.23;100.00
36254;BME280;22291;52.250;21.228;2023-01-09T06:24:52;99194.09;;;3.23;100.00
36254;BME280;22291;52.250;21.228;2023-01-09T06:27:18;99187.17;;;3.22;100.00
36254;BME280;22291;52.250;21.228;2023-01-09T06:29:45;99187.41;;;3.23;100.00
36254;BME280;22291;52.250;21.228;2023-01-09T06:32:11;99186.63;;;3.23;100.00
36254;BME280;22291;52.250;21.228;2023-01-09T06:34:37;99186.64;;;3.20;100.00
36254;BME280;22291;52.250;21.228;2023-01-09T06:37:04;99193.09;;;3.19;100.00
36254;BME280;22291;52.250;21.228;2023-01-09T06:39:30;99188.31;;;3.16;100.00
36254;BME280;22291;52.250;21.228;2023-01-09T06:41:56;99187.25;;;3.14;100.00
36254;BME280;22291;52.250;21.228;2023-01-09T06:44:22;99192.09;;;3.12;100.00
36254;BME280;22291;52.250;21.228;2023-01-09T06:46:48;99195.34;;;3.09;100.00
36254;BME280;22291;52.250;21.228;2023-01-09T06:49:15;99204.45;;;3.08;100.00
36254;BME280;22291;52.250;21.228;2023-01-09T06:51:44;99201.01;;;3.05;100.00
36254;BME280;22291;52.250;21.228;2023-01-09T06:54:11;99198.62;;;3.04;100.00
36254;BME280;22291;52.250;21.228;2023-01-09T06:56:38;99188.48;;;3.03;100.00
36254;BME280;22291;52.250;21.228;2023-01-09T06:59:04;99182.60;;;3.01;100.00
36254;BME280;22291;52.250;21.228;2023-01-09T07:01:30;99175.41;;;3.02;100.00
36254;BME280;22291;52.250;21.228;2023-01-09T07:03:56;99178.08;;;3.02;100.00
36254;BME280;22291;52.250;21.228;2023-01-09T07:06:22;99177.02;;;3.00;100.00
36254;BME280;22291;52.250;21.228;2023-01-09T07:08:48;99170.86;;;2.99;100.00
36254;BME280;22291;52.250;21.228;2023-01-09T07:11:15;99171.68;;;3.00;100.00
36254;BME280;22291;52.250;21.228;2023-01-09T07:13:41;99169.84;;;2.98;100.00
36254;BME280;22291;52.250;21.228;2023-01-09T07:16:07;99153.22;;;3.01;100.00
36254;BME280;22291;52.250;21.228;2023-01-09T07:18:34;99164.72;;;3.02;100.00
36254;BME280;22291;52.250;21.228;2023-01-09T07:21:04;99164.44;;;3.03;100.00
36254;BME280;22291;52.250;21.228;2023-01-09T07:23:31;99163.89;;;3.04;100.00
36254;BME280;22291;52.250;21.228;2023-01-09T07:25:59;99160.65;;;3.07;100.00
36254;BME280;22291;52.250;21.228;2023-01-09T07:28:26;99166.78;;;3.07;100.00
36254;BME280;22291;52.250;21.228;2023-01-09T07:30:53;99165.11;;;3.11;100.00
36254;BME280;22291;52.250;21.228;2023-01-09T07:33:20;99168.05;;;3.12;100.00
36254;BME280;22291;52.250;21.228;2023-01-09T07:35:46;99173.89;;;3.14;100.00
36254;BME280;22291;52.250;21.228;2023-01-09T07:38:12;99168.82;;;3.15;100.00
36254;BME280;22291;52.250;21.228;2023-01-09T07:40:38;99172.78;;;3.18;100.00
36254;BME280;22291;52.250;21.228;2023-01-09T07:43:05;99165.58;;;3.18;100.00
36254;BME280;22291;52.250;21.228;2023-01-09T07:45:32;99159.91;;;3.23;100.00
36254;BME280;22291;52.250;21.228;2023-01-09T07:47:58;99158.55;;;3.25;100.00
36254;BME280;22291;52.250;21.228;2023-01-09T07:50:25;99155.03;;;3.27;100.00
36254;BME280;22291;52.250;21.228;2023-01-09T07:52:51;99163.27;;;3.31;100.00
36254;BME280;22291;52.250;21.228;2023-01-09T07:55:17;99163.50;;;3.32;100.00
36254;BME280;22291;52.250;21.228;2023-01-09T07:57:48;99162.16;;;3.34;100.00
36254;BME280;22291;52.250;21.228;2023-01-09T08:00:17;99154.63;;;3.36;100.00
36254;BME280;22291;52.250;21.228;2023-01-09T08:02:51;99147.37;;;3.40;100.00
36254;BME280;22291;52.250;21.228;2023-01-09T08:05:18;99144.92;;;3.43;100.00
36254;BME280;22291;52.250;21.228;2023-01-09T08:07:45;99144.34;;;3.46;100.00
36254;BME280;22291;52.250;21.228;2023-01-09T08:10:12;99138.95;;;3.49;100.00
36254;BME280;22291;52.250;21.228;2023-01-09T08:12:43;99143.41;;;3.56;100.00
36254;BME280;22291;52.250;21.228;2023-01-09T08:15:10;99142.78;;;3.62;100.00
36254;BME280;22291;52.250;21.228;2023-01-09T08:17:39;99137.56;;;3.70;100.00
36254;BME280;22291;52.250;21.228;2023-01-09T08:20:10;99143.54;;;3.81;100.00
36254;BME280;22291;52.250;21.228;2023-01-09T08:22:40;99146.31;;;3.92;100.00
36254;BME280;22291;52.250;21.228;2023-01-09T08:25:08;99154.26;;;3.98;100.00
36254;BME280;22291;52.250;21.228;2023-01-09T08:27:35;99145.30;;;4.05;100.00
36254;BME280;22291;52.250;21.228;2023-01-09T08:30:03;99147.11;;;4.09;99.70
36254;BME280;22291;52.250;21.228;2023-01-09T08:32:30;99142.16;;;4.17;99.50
36254;BME280;22291;52.250;21.228;2023-01-09T08:34:57;99143.70;;;4.20;99.25
36254;BME280;22291;52.250;21.228;2023-01-09T08:37:23;99144.66;;;4.27;99.60
36254;BME280;22291;52.250;21.228;2023-01-09T08:39:50;99132.58;;;4.29;98.76
36254;BME280;22291;52.250;21.228;2023-01-09T08:42:19;99136.02;;;4.33;98.57
36254;BME280;22291;52.250;21.228;2023-01-09T08:45:05;99130.30;;;4.37;98.49
36254;BME280;22291;52.250;21.228;2023-01-09T08:47:53;99133.64;;;4.45;99.02
36254;BME280;22291;52.250;21.228;2023-01-09T08:50:20;99126.30;;;4.51;98.23
36254;BME280;22291;52.250;21.228;2023-01-09T08:52:47;99125.22;;;4.52;97.96
36254;BME280;22291;52.250;21.228;2023-01-09T08:55:13;99110.69;;;4.55;98.04
36254;BME280;22291;52.250;21.228;2023-01-09T08:57:49;99123.72;;;4.59;97.80
36254;BME280;22291;52.250;21.228;2023-01-09T09:00:20;99130.67;;;4.60;97.47
36254;BME280;22291;52.250;21.228;2023-01-09T09:02:53;99129.79;;;4.65;97.13
36254;BME280;22291;52.250;21.228;2023-01-09T09:05:22;99128.75;;;4.63;96.78
36254;BME280;22291;52.250;21.228;2023-01-09T09:07:52;99137.59;;;4.61;96.51
36254;BME280;22291;52.250;21.228;2023-01-09T09:10:22;99141.42;;;4.58;95.74
36254;BME280;22291;52.250;21.228;2023-01-09T09:12:53;99129.17;;;4.54;96.18
36254;BME280;22291;52.250;21.228;2023-01-09T09:15:23;99122.73;;;4.55;96.41
36254;BME280;22291;52.250;21.228;2023-01-09T09:17:57;99121.14;;;4.54;96.26
36254;BME280;22291;52.250;21.228;2023-01-09T09:20:28;99122.77;;;4.53;96.21
36254;BME280;22291;52.250;21.228;2023-01-09T09:22:57;99111.08;;;4.48;95.92
36254;BME280;22291;52.250;21.228;2023-01-09T09:25:26;99112.45;;;4.46;95.71
36254;BME280;22291;52.250;21.228;2023-01-09T09:27:53;99113.79;;;4.46;95.88
36254;BME280;22291;52.250;21.228;2023-01-09T09:30:22;99101.25;;;4.44;96.16
36254;BME280;22291;52.250;21.228;2023-01-09T09:32:51;99092.08;;;4.47;96.02
36254;BME280;22291;52.250;21.228;2023-01-09T09:35:17;99086.48;;;4.46;95.92
36254;BME280;22291;52.250;21.228;2023-01-09T09:38:02;99075.97;;;4.50;96.36
36254;BME280;22291;52.250;21.228;2023-01-09T09:48:56;99087.47;;;4.51;95.62
36254;BME280;22291;52.250;21.228;2023-01-09T09:51:39;99088.81;;;4.51;95.47
36254;BME280;22291;52.250;21.228;2023-01-09T09:54:17;99094.72;;;4.50;95.63
36254;BME280;22291;52.250;21.228;2023-01-09T09:56:50;99078.69;;;4.47;95.70
36254;BME280;22291;52.250;21.228;2023-01-09T09:59:25;99084.45;;;4.55;96.37
36254;BME280;22291;52.250;21.228;2023-01-09T10:04:54;99069.00;;;4.63;96.38
36254;BME280;22291;52.250;21.228;2023-01-09T10:07:31;99070.64;;;4.61;96.02
36254;BME280;22291;52.250;21.228;2023-01-09T10:10:00;99063.72;;;4.60;95.60
36254;BME280;22291;52.250;21.228;2023-01-09T10:12:34;99069.86;;;4.61;95.90
36254;BME280;22291;52.250;21.228;2023-01-09T10:15:14;99063.72;;;4.60;96.05
36254;BME280;22291;52.250;21.228;2023-01-09T10:18:00;99059.41;;;4.62;95.68
36254;BME280;22291;52.250;21.228;2023-01-09T10:20:41;99067.18;;;4.61;95.78
36254;BME280;22291;52.250;21.228;2023-01-09T10:26:19;99057.80;;;4.61;96.20
36254;BME280;22291;52.250;21.228;2023-01-09T10:32:25;99053.49;;;4.62;96.19
36254;BME280;22291;52.250;21.228;2023-01-09T10:35:27;99052.74;;;4.59;96.15
36254;BME280;22291;52.250;21.228;2023-01-09T10:37:53;99058.06;;;4.62;96.24
36254;BME280;22291;52.250;21.228;2023-01-09T10:40:25;99061.82;;;4.61;96.41
36254;BME280;22291;52.250;21.228;2023-01-09T10:43:01;99065.61;;;4.60;96.43
36254;BME280;22291;52.250;21.228;2023-01-09T10:45:35;99052.52;;;4.58;96.51
36254;BME280;22291;52.250;21.228;2023-01-09T10:48:23;99045.86;;;4.56;96.75
36254;BME280;22291;52.250;21.228;2023-01-09T10:51:04;99046.16;;;4.54;96.99
36254;BME280;22291;52.250;21.228;2023-01-09T10:53:49;99040.02;;;4.54;97.21
36254;BME280;22291;52.250;21.228;2023-01-09T10:56:21;99043.77;;;4.53;97.40
36254;BME280;22291;52.250;21.228;2023-01-09T10:58:54;99032.02;;;4.51;97.65
36254;BME280;22291;52.250;21.228;2023-01-09T11:01:33;99031.72;;;4.53;97.98
36254;BME280;22291;52.250;21.228;2023-01-09T11:03:57;99028.52;;;4.53;98.21
36254;BME280;22291;52.250;21.228;2023-01-09T11:06:45;99029.05;;;4.53;98.42
36254;BME280;22291;52.250;21.228;2023-01-09T11:09:13;99025.84;;;4.53;98.78
36254;BME280;22291;52.250;21.228;2023-01-09T11:11:42;99026.66;;;4.51;98.90
36254;BME280;22291;52.250;21.228;2023-01-09T11:16:56;99018.10;;;4.52;99.43
36254;BME280;22291;52.250;21.228;2023-01-09T11:19:28;99006.91;;;4.49;99.64
36254;BME280;22291;52.250;21.228;2023-01-09T11:22:17;99006.34;;;4.50;99.81
36254;BME280;22291;52.250;21.228;2023-01-09T11:24:49;99003.97;;;4.48;100.00
36254;BME280;22291;52.250;21.228;2023-01-09T11:27:22;99008.47;;;4.51;100.00
36254;BME280;22291;52.250;21.228;2023-01-09T11:30:12;98995.94;;;4.48;100.00
36254;BME280;22291;52.250;21.228;2023-01-09T11:32:46;98999.88;;;4.51;100.00
36254;BME280;22291;52.250;21.228;2023-01-09T11:35:23;98995.27;;;4.54;100.00
36254;BME280;22291;52.250;21.228;2023-01-09T11:38:13;98985.38;;;4.55;100.00
36254;BME280;22291;52.250;21.228;2023-01-09T11:40:51;98982.92;;;4.56;100.00
36254;BME280;22291;52.250;21.228;2023-01-09T11:46:07;98967.41;;;4.55;100.00
36254;BME280;22291;52.250;21.228;2023-01-09T11:48:41;98975.93;;;4.57;100.00
36254;BME280;22291;52.250;21.228;2023-01-09T11:51:24;98973.25;;;4.57;100.00
36254;BME280;22291;52.250;21.228;2023-01-09T11:56:44;98970.83;;;4.58;100.00
36254;BME280;22291;52.250;21.228;2023-01-09T11:59:17;98965.77;;;4.57;100.00
36254;BME280;22291;52.250;21.228;2023-01-09T12:08:01;98949.15;;;4.57;100.00
36254;BME280;22291;52.250;21.228;2023-01-09T12:10:56;98943.23;;;4.58;100.00
36254;BME280;22291;52.250;21.228;2023-01-09T12:13:43;98936.02;;;4.58;100.00
36254;BME280;22291;52.250;21.228;2023-01-09T12:16:34;98930.10;;;4.59;100.00
36254;BME280;22291;52.250;21.228;2023-01-09T12:19:41;98930.59;;;4.61;100.00
36254;BME280;22291;52.250;21.228;2023-01-09T12:22:34;98929.73;;;4.63;100.00
36254;BME280;22291;52.250;21.228;2023-01-09T12:27:55;98931.59;;;4.65;100.00
36254;BME280;22291;52.250;21.228;2023-01-09T12:30:42;98923.22;;;4.66;100.00
36254;BME280;22291;52.250;21.228;2023-01-09T12:36:47;98928.67;;;4.75;100.00
36254;BME280;22291;52.250;21.228;2023-01-09T12:42:17;98924.58;;;4.78;100.00
36254;BME280;22291;52.250;21.228;2023-01-09T12:45:00;98928.55;;;4.80;100.00
36254;BME280;22291;52.250;21.228;2023-01-09T12:47:47;98926.91;;;4.82;100.00
36254;BME280;22291;52.250;21.228;2023-01-09T12:53:27;98937.52;;;4.87;100.00
36254;BME280;22291;52.250;21.228;2023-01-09T12:56:11;98928.06;;;4.90;100.00
36254;BME280;22291;52.250;21.228;2023-01-09T12:58:43;98939.74;;;4.94;100.00
36254;BME280;22291;52.250;21.228;2023-01-09T13:01:29;98931.35;;;4.98;100.00
36254;BME280;22291;52.250;21.228;2023-01-09T13:04:14;98931.23;;;5.03;100.00
36254;BME280;22291;52.250;21.228;2023-01-09T13:06:43;98926.13;;;5.04;100.00
36254;BME280;22291;52.250;21.228;2023-01-09T13:09:22;98925.01;;;5.05;100.00
36254;BME280;22291;52.250;21.228;2023-01-09T13:12:01;98924.70;;;5.07;100.00
36254;BME280;22291;52.250;21.228;2023-01-09T13:17:45;98924.97;;;5.08;100.00
36254;BME280;22291;52.250;21.228;2023-01-09T13:23:03;98922.81;;;5.07;100.00
36254;BME280;22291;52.250;21.228;2023-01-09T13:25:43;98923.32;;;5.09;100.00
36254;BME280;22291;52.250;21.228;2023-01-09T13:28:17;98926.00;;;5.09;100.00
36254;BME280;22291;52.250;21.228;2023-01-09T13:34:19;98912.83;;;5.10;100.00
36254;BME280;22291;52.250;21.228;2023-01-09T13:36:53;98915.77;;;5.11;100.00
36254;BME280;22291;52.250;21.228;2023-01-09T13:39:24;98902.05;;;5.13;100.00
36254;BME280;22291;52.250;21.228;2023-01-09T13:41:57;98899.91;;;5.12;100.00
36254;BME280;22291;52.250;21.228;2023-01-09T13:44:47;98896.05;;;5.16;100.00
36254;BME280;22291;52.250;21.228;2023-01-09T13:47:20;98894.97;;;5.17;100.00
36254;BME280;22291;52.250;21.228;2023-01-09T13:50:04;98904.83;;;5.19;100.00
36254;BME280;22291;52.250;21.228;2023-01-09T13:52:34;98903.27;;;5.18;100.00
36254;BME280;22291;52.250;21.228;2023-01-09T14:03:16;98899.42;;;5.21;100.00
36254;BME280;22291;52.250;21.228;2023-01-09T14:08:27;98901.23;;;5.23;100.00
36254;BME280;22291;52.250;21.228;2023-01-09T14:11:00;98892.64;;;5.24;100.00
36254;BME280;22291;52.250;21.228;2023-01-09T14:13:43;98894.48;;;5.26;100.00
36254;BME280;22291;52.250;21.228;2023-01-09T14:18:49;98892.03;;;5.27;100.00
36254;BME280;22291;52.250;21.228;2023-01-09T14:21:15;98892.28;;;5.28;100.00
36254;BME280;22291;52.250;21.228;2023-01-09T14:24:00;98886.36;;;5.29;100.00
36254;BME280;22291;52.250;21.228;2023-01-09T14:26:51;98873.21;;;5.30;100.00
36254;BME280;22291;52.250;21.228;2023-01-09T14:35:18;98889.64;;;5.37;100.00
36254;BME280;22291;52.250;21.228;2023-01-09T14:37:55;98883.16;;;5.38;100.00
36254;BME280;22291;52.250;21.228;2023-01-09T14:40:22;98888.00;;;5.38;100.00
36254;BME280;22291;52.250;21.228;2023-01-09T14:42:50;98884.20;;;5.39;100.00
36254;BME280;22291;52.250;21.228;2023-01-09T15:05:48;98897.75;;;5.54;100.00
36254;BME280;22291;52.250;21.228;2023-01-09T15:08:18;98897.70;;;5.57;100.00
36254;BME280;22291;52.250;21.228;2023-01-09T15:10:49;98908.91;;;5.59;100.00
36254;BME280;22291;52.250;21.228;2023-01-09T15:16:03;98897.31;;;5.61;100.00
36254;BME280;22291;52.250;21.228;2023-01-09T15:18:37;98904.02;;;5.61;100.00
36254;BME280;22291;52.250;21.228;2023-01-09T15:21:04;98894.58;;;5.64;100.00
36254;BME280;22291;52.250;21.228;2023-01-09T15:23:31;98897.79;;;5.63;100.00
36254;BME280;22291;52.250;21.228;2023-01-09T15:26:25;98902.84;;;5.65;100.00
36254;BME280;22291;52.250;21.228;2023-01-09T15:29:01;98905.22;;;5.66;100.00